sensor_id;sensor_type;location;lat;lon;timestamp;temperature;humidity
63219;DHT22;49320;52.512;13.448;2023-03-23T00:01:58;16.20;58.70
63219;DHT22;49320;52.512;13.448;2023-03-23T00:04:25;16.20;58.70
63219;DHT22;49320;52.512;13.448;2023-03-23T00:06:52;16.10;58.40
63219;DHT22;49320;52.512;13.448;2023-03-23T00:09:18;16.10;58.30
63219;DHT22;49320;52.512;13.448;2023-03-23T00:11:50;16.10;58.80
63219;DHT22;49320;52.512;13.448;2023-03-23T00:14:17;16.10;58.50
63219;DHT22;49320;52.512;13.448;2023-03-23T00:16:48;16.00;58.60
63219;DHT22;49320;52.512;13.448;2023-03-23T00:19:15;16.00;59.00
63219;DHT22;49320;52.512;13.448;2023-03-23T00:21:42;15.90;59.00
63219;DHT22;49320;52.512;13.448;2023-03-23T00:24:16;15.90;59.00
63219;DHT22;49320;52.512;13.448;2023-03-23T00:26:45;15.90;59.20
63219;DHT22;49320;52.512;13.448;2023-03-23T00:29:15;15.80;59.10
63219;DHT22;49320;52.512;13.448;2023-03-23T00:31:43;15.80;59.20
63219;DHT22;49320;52.512;13.448;2023-03-23T00:34:21;15.70;59.20
63219;DHT22;49320;52.512;13.448;2023-03-23T00:36:54;15.70;59.30
63219;DHT22;49320;52.512;13.448;2023-03-23T00:39:22;15.70;59.30
63219;DHT22;49320;52.512;13.448;2023-03-23T00:41:53;15.60;59.30
63219;DHT22;49320;52.512;13.448;2023-03-23T00:44:30;15.60;59.40
63219;DHT22;49320;52.512;13.448;2023-03-23T00:46:58;15.60;59.40
63219;DHT22;49320;52.512;13.448;2023-03-23T00:49:25;15.60;59.00
63219;DHT22;49320;52.512;13.448;2023-03-23T00:51:53;15.50;59.40
63219;DHT22;49320;52.512;13.448;2023-03-23T00:54:20;15.50;59.50
63219;DHT22;49320;52.512;13.448;2023-03-23T00:56:47;15.50;59.50
63219;DHT22;49320;52.512;13.448;2023-03-23T00:59:13;15.40;59.50
63219;DHT22;49320;52.512;13.448;2023-03-23T01:01:39;15.30;59.50
63219;DHT22;49320;52.512;13.448;2023-03-23T01:04:06;15.40;60.30
63219;DHT22;49320;52.512;13.448;2023-03-23T01:06:35;15.40;59.70
63219;DHT22;49320;52.512;13.448;2023-03-23T01:09:08;15.20;59.70
63219;DHT22;49320;52.512;13.448;2023-03-23T01:11:36;15.30;59.80
63219;DHT22;49320;52.512;13.448;2023-03-23T01:14:03;15.30;59.80
63219;DHT22;49320;52.512;13.448;2023-03-23T01:16:29;15.30;59.50
63219;DHT22;49320;52.512;13.448;2023-03-23T01:18:55;15.20;59.80
63219;DHT22;49320;52.512;13.448;2023-03-23T01:21:21;15.20;59.90
63219;DHT22;49320;52.512;13.448;2023-03-23T01:23:48;15.20;59.90
63219;DHT22;49320;52.512;13.448;2023-03-23T01:26:17;15.10;59.60
63219;DHT22;49320;52.512;13.448;2023-03-23T01:28:44;15.10;60.00
63219;DHT22;49320;52.512;13.448;2023-03-23T01:31:21;15.10;60.00
63219;DHT22;49320;52.512;13.448;2023-03-23T01:33:49;15.10;60.10
63219;DHT22;49320;52.512;13.448;2023-03-23T01:36:22;15.10;60.10
63219;DHT22;49320;52.512;13.448;2023-03-23T01:38:50;15.10;60.20
63219;DHT22;49320;52.512;13.448;2023-03-23T01:41:17;14.90;60.10
63219;DHT22;49320;52.512;13.448;2023-03-23T01:44:02;15.00;60.20
63219;DHT22;49320;52.512;13.448;2023-03-23T01:46:32;15.00;59.90
63219;DHT22;49320;52.512;13.448;2023-03-23T01:49:09;15.00;60.40
63219;DHT22;49320;52.512;13.448;2023-03-23T01:51:59;14.90;60.40
63219;DHT22;49320;52.512;13.448;2023-03-23T01:54:31;14.90;60.00
63219;DHT22;49320;52.512;13.448;2023-03-23T01:57:02;14.90;60.10
63219;DHT22;49320;52.512;13.448;2023-03-23T01:59:31;14.90;60.60
63219;DHT22;49320;52.512;13.448;2023-03-23T02:01:59;14.90;60.70
63219;DHT22;49320;52.512;13.448;2023-03-23T02:04:27;14.90;60.40
63219;DHT22;49320;52.512;13.448;2023-03-23T02:06:54;14.80;60.10
63219;DHT22;49320;52.512;13.448;2023-03-23T02:09:25;14.90;60.70
63219;DHT22;49320;52.512;13.448;2023-03-23T02:11:51;14.90;60.70
63219;DHT22;49320;52.512;13.448;2023-03-23T02:14:19;14.90;60.30
63219;DHT22;49320;52.512;13.448;2023-03-23T02:17:17;14.90;60.40
63219;DHT22;49320;52.512;13.448;2023-03-23T02:20:43;14.90;61.00
63219;DHT22;49320;52.512;13.448;2023-03-23T02:23:29;14.90;60.40
63219;DHT22;49320;52.512;13.448;2023-03-23T02:26:32;14.90;60.90
63219;DHT22;49320;52.512;13.448;2023-03-23T02:29:36;14.60;60.60
63219;DHT22;49320;52.512;13.448;2023-03-23T02:35:21;14.90;60.40
63219;DHT22;49320;52.512;13.448;2023-03-23T02:37:52;14.90;60.90
63219;DHT22;49320;52.512;13.448;2023-03-23T02:40:38;14.90;60.90
63219;DHT22;49320;52.512;13.448;2023-03-23T02:43:15;15.00;60.40
63219;DHT22;49320;52.512;13.448;2023-03-23T02:45:45;15.00;60.90
63219;DHT22;49320;52.512;13.448;2023-03-23T02:48:13;15.10;60.40
63219;DHT22;49320;52.512;13.448;2023-03-23T02:50:45;15.00;60.90
63219;DHT22;49320;52.512;13.448;2023-03-23T02:53:14;15.00;60.90
63219;DHT22;49320;52.512;13.448;2023-03-23T02:55:44;15.10;61.00
63219;DHT22;49320;52.512;13.448;2023-03-23T02:58:12;15.10;61.00
63219;DHT22;49320;52.512;13.448;2023-03-23T03:00:38;15.20;60.60
63219;DHT22;49320;52.512;13.448;2023-03-23T03:03:10;15.20;61.10
63219;DHT22;49320;52.512;13.448;2023-03-23T03:08:46;15.30;60.70
63219;DHT22;49320;52.512;13.448;2023-03-23T03:11:19;15.30;61.30
63219;DHT22;49320;52.512;13.448;2023-03-23T03:14:05;15.30;61.20
63219;DHT22;49320;52.512;13.448;2023-03-23T03:19:35;15.30;61.40
63219;DHT22;49320;52.512;13.448;2023-03-23T03:22:08;15.30;61.40
63219;DHT22;49320;52.512;13.448;2023-03-23T03:24:35;15.30;61.40
63219;DHT22;49320;52.512;13.448;2023-03-23T03:27:11;15.40;61.50
63219;DHT22;49320;52.512;13.448;2023-03-23T03:29:45;15.40;61.50
63219;DHT22;49320;52.512;13.448;2023-03-23T03:32:19;15.40;61.50
63219;DHT22;49320;52.512;13.448;2023-03-23T03:34:48;15.40;61.60
63219;DHT22;49320;52.512;13.448;2023-03-23T03:37:17;15.40;61.60
63219;DHT22;49320;52.512;13.448;2023-03-23T03:39:44;15.40;61.60
63219;DHT22;49320;52.512;13.448;2023-03-23T03:42:09;15.40;61.00
63219;DHT22;49320;52.512;13.448;2023-03-23T03:44:35;15.40;61.60
63219;DHT22;49320;52.512;13.448;2023-03-23T03:47:01;15.50;61.60
63219;DHT22;49320;52.512;13.448;2023-03-23T03:49:27;15.50;61.00
63219;DHT22;49320;52.512;13.448;2023-03-23T03:51:53;15.50;61.60
63219;DHT22;49320;52.512;13.448;2023-03-23T03:54:19;15.50;61.80
63219;DHT22;49320;52.512;13.448;2023-03-23T03:56:45;15.50;61.80
63219;DHT22;49320;52.512;13.448;2023-03-23T03:59:11;15.50;62.00
63219;DHT22;49320;52.512;13.448;2023-03-23T04:01:38;15.50;62.00
63219;DHT22;49320;52.512;13.448;2023-03-23T04:04:05;15.50;62.70
63219;DHT22;49320;52.512;13.448;2023-03-23T04:06:33;15.50;62.10
63219;DHT22;49320;52.512;13.448;2023-03-23T04:09:03;15.50;62.10
63219;DHT22;49320;52.512;13.448;2023-03-23T04:11:33;15.50;61.80
63219;DHT22;49320;52.512;13.448;2023-03-23T04:13:58;15.40;62.30
63219;DHT22;49320;52.512;13.448;2023-03-23T04:16:24;15.50;62.00
63219;DHT22;49320;52.512;13.448;2023-03-23T04:18:51;15.40;61.70
63219;DHT22;49320;52.512;13.448;2023-03-23T04:21:17;15.40;62.20
63219;DHT22;49320;52.512;13.448;2023-03-23T04:23:43;15.40;62.30
63219;DHT22;49320;52.512;13.448;2023-03-23T04:26:09;15.40;62.50
63219;DHT22;49320;52.512;13.448;2023-03-23T04:28:38;15.40;62.60
63219;DHT22;49320;52.512;13.448;2023-03-23T04:31:06;15.40;62.50
63219;DHT22;49320;52.512;13.448;2023-03-23T04:33:34;15.40;62.60
63219;DHT22;49320;52.512;13.448;2023-03-23T04:36:01;15.40;62.60
63219;DHT22;49320;52.512;13.448;2023-03-23T04:38:28;15.40;62.70
63219;DHT22;49320;52.512;13.448;2023-03-23T04:40:55;15.40;62.80
63219;DHT22;49320;52.512;13.448;2023-03-23T04:43:23;15.40;62.90
63219;DHT22;49320;52.512;13.448;2023-03-23T04:45:57;15.40;62.80
63219;DHT22;49320;52.512;13.448;2023-03-23T04:48:27;15.40;63.30
63219;DHT22;49320;52.512;13.448;2023-03-23T04:50:55;15.40;63.30
63219;DHT22;49320;52.512;13.448;2023-03-23T04:53:21;15.40;63.30
63219;DHT22;49320;52.512;13.448;2023-03-23T04:55:48;15.40;63.40
63219;DHT22;49320;52.512;13.448;2023-03-23T04:58:15;15.40;63.50
63219;DHT22;49320;52.512;13.448;2023-03-23T05:00:41;15.40;63.50
63219;DHT22;49320;52.512;13.448;2023-03-23T05:03:18;15.40;63.50
63219;DHT22;49320;52.512;13.448;2023-03-23T05:05:45;15.30;63.70
63219;DHT22;49320;52.512;13.448;2023-03-23T05:08:21;15.30;63.70
63219;DHT22;49320;52.512;13.448;2023-03-23T05:10:56;15.10;63.60
63219;DHT22;49320;52.512;13.448;2023-03-23T05:13:25;15.30;64.00
63219;DHT22;49320;52.512;13.448;2023-03-23T05:15:52;15.30;63.80
63219;DHT22;49320;52.512;13.448;2023-03-23T05:18:18;15.30;64.10
63219;DHT22;49320;52.512;13.448;2023-03-23T05:20:46;15.30;63.90
63219;DHT22;49320;52.512;13.448;2023-03-23T05:23:12;15.20;64.50
63219;DHT22;49320;52.512;13.448;2023-03-23T05:25:38;15.20;64.50
63219;DHT22;49320;52.512;13.448;2023-03-23T05:28:08;15.20;64.30
63219;DHT22;49320;52.512;13.448;2023-03-23T05:30:37;15.20;64.60
63219;DHT22;49320;52.512;13.448;2023-03-23T05:33:05;15.20;64.70
63219;DHT22;49320;52.512;13.448;2023-03-23T05:35:31;15.10;64.50
63219;DHT22;49320;52.512;13.448;2023-03-23T05:37:57;15.10;65.00
63219;DHT22;49320;52.512;13.448;2023-03-23T05:40:24;15.10;65.00
63219;DHT22;49320;52.512;13.448;2023-03-23T05:42:51;15.10;64.60
63219;DHT22;49320;52.512;13.448;2023-03-23T05:45:17;15.00;65.10
63219;DHT22;49320;52.512;13.448;2023-03-23T05:47:44;15.10;65.20
63219;DHT22;49320;52.512;13.448;2023-03-23T05:50:12;15.00;65.30
63219;DHT22;49320;52.512;13.448;2023-03-23T05:52:39;15.00;65.40
63219;DHT22;49320;52.512;13.448;2023-03-23T05:55:06;14.90;65.00
63219;DHT22;49320;52.512;13.448;2023-03-23T05:57:33;14.90;65.60
63219;DHT22;49320;52.512;13.448;2023-03-23T05:59:59;14.90;65.60
63219;DHT22;49320;52.512;13.448;2023-03-23T06:02:30;14.90;66.00
63219;DHT22;49320;52.512;13.448;2023-03-23T06:04:56;14.80;66.00
63219;DHT22;49320;52.512;13.448;2023-03-23T06:07:24;14.80;66.20
63219;DHT22;49320;52.512;13.448;2023-03-23T06:09:51;14.80;66.50
63219;DHT22;49320;52.512;13.448;2023-03-23T06:12:18;14.70;66.40
63219;DHT22;49320;52.512;13.448;2023-03-23T06:14:49;14.70;66.90
63219;DHT22;49320;52.512;13.448;2023-03-23T06:17:15;14.70;67.70
63219;DHT22;49320;52.512;13.448;2023-03-23T06:19:44;14.70;67.50
63219;DHT22;49320;52.512;13.448;2023-03-23T06:22:14;14.60;67.90
63219;DHT22;49320;52.512;13.448;2023-03-23T06:24:39;14.60;67.80
63219;DHT22;49320;52.512;13.448;2023-03-23T06:27:05;14.60;68.20
63219;DHT22;49320;52.512;13.448;2023-03-23T06:29:31;14.50;68.20
63219;DHT22;49320;52.512;13.448;2023-03-23T06:32:00;14.50;68.70
63219;DHT22;49320;52.512;13.448;2023-03-23T06:34:28;14.50;69.10
63219;DHT22;49320;52.512;13.448;2023-03-23T06:36:55;14.40;68.90
63219;DHT22;49320;52.512;13.448;2023-03-23T06:39:21;14.40;69.20
63219;DHT22;49320;52.512;13.448;2023-03-23T06:41:48;14.40;69.60
63219;DHT22;49320;52.512;13.448;2023-03-23T06:44:14;14.40;70.10
63219;DHT22;49320;52.512;13.448;2023-03-23T06:46:41;14.40;70.20
63219;DHT22;49320;52.512;13.448;2023-03-23T06:49:08;14.40;70.90
63219;DHT22;49320;52.512;13.448;2023-03-23T06:51:34;14.40;70.50
63219;DHT22;49320;52.512;13.448;2023-03-23T06:54:00;14.30;71.00
63219;DHT22;49320;52.512;13.448;2023-03-23T06:56:26;14.40;71.40
63219;DHT22;49320;52.512;13.448;2023-03-23T06:58:52;14.40;71.30
63219;DHT22;49320;52.512;13.448;2023-03-23T07:01:18;14.40;71.20
63219;DHT22;49320;52.512;13.448;2023-03-23T07:03:44;14.50;72.10
63219;DHT22;49320;52.512;13.448;2023-03-23T07:06:11;14.40;71.20
63219;DHT22;49320;52.512;13.448;2023-03-23T07:08:38;14.40;71.40
63219;DHT22;49320;52.512;13.448;2023-03-23T07:11:04;14.40;71.80
63219;DHT22;49320;52.512;13.448;2023-03-23T07:13:30;14.40;71.90
63219;DHT22;49320;52.512;13.448;2023-03-23T07:15:56;14.50;73.00
63219;DHT22;49320;52.512;13.448;2023-03-23T07:18:23;14.50;72.40
63219;DHT22;49320;52.512;13.448;2023-03-23T07:20:50;14.50;72.30
63219;DHT22;49320;52.512;13.448;2023-03-23T07:23:17;14.50;72.70
63219;DHT22;49320;52.512;13.448;2023-03-23T07:25:45;14.50;73.00
63219;DHT22;49320;52.512;13.448;2023-03-23T07:28:12;14.50;73.30
63219;DHT22;49320;52.512;13.448;2023-03-23T07:30:38;14.60;73.00
63219;DHT22;49320;52.512;13.448;2023-03-23T07:33:06;14.60;74.20
63219;DHT22;49320;52.512;13.448;2023-03-23T07:35:34;14.60;73.50
63219;DHT22;49320;52.512;13.448;2023-03-23T07:38:01;14.60;73.80
63219;DHT22;49320;52.512;13.448;2023-03-23T07:40:28;14.60;73.70
63219;DHT22;49320;52.512;13.448;2023-03-23T07:42:56;14.70;74.10
63219;DHT22;49320;52.512;13.448;2023-03-23T07:45:23;14.80;75.00
63219;DHT22;49320;52.512;13.448;2023-03-23T07:47:50;14.70;74.60
63219;DHT22;49320;52.512;13.448;2023-03-23T07:50:16;14.70;74.50
63219;DHT22;49320;52.512;13.448;2023-03-23T07:52:43;14.80;74.70
63219;DHT22;49320;52.512;13.448;2023-03-23T07:55:11;14.80;74.90
63219;DHT22;49320;52.512;13.448;2023-03-23T07:57:43;14.80;75.10
63219;DHT22;49320;52.512;13.448;2023-03-23T08:00:11;14.80;74.70
63219;DHT22;49320;52.512;13.448;2023-03-23T08:02:46;14.90;75.00
63219;DHT22;49320;52.512;13.448;2023-03-23T08:07:42;15.00;74.60
63219;DHT22;49320;52.512;13.448;2023-03-23T08:10:09;14.90;74.30
63219;DHT22;49320;52.512;13.448;2023-03-23T08:12:37;15.00;75.20
63219;DHT22;49320;52.512;13.448;2023-03-23T08:15:05;15.20;74.90
63219;DHT22;49320;52.512;13.448;2023-03-23T08:17:33;15.10;75.10
63219;DHT22;49320;52.512;13.448;2023-03-23T08:20:00;15.10;75.50
63219;DHT22;49320;52.512;13.448;2023-03-23T08:22:27;15.20;75.70
63219;DHT22;49320;52.512;13.448;2023-03-23T08:24:54;15.30;75.50
63219;DHT22;49320;52.512;13.448;2023-03-23T08:27:21;15.30;75.20
63219;DHT22;49320;52.512;13.448;2023-03-23T08:29:47;15.30;75.20
63219;DHT22;49320;52.512;13.448;2023-03-23T08:32:13;15.40;75.30
63219;DHT22;49320;52.512;13.448;2023-03-23T08:34:40;15.40;75.20
63219;DHT22;49320;52.512;13.448;2023-03-23T08:37:08;15.40;75.10
63219;DHT22;49320;52.512;13.448;2023-03-23T08:39:34;15.50;75.40
63219;DHT22;49320;52.512;13.448;2023-03-23T08:42:00;15.50;75.30
63219;DHT22;49320;52.512;13.448;2023-03-23T08:44:25;15.50;75.30
63219;DHT22;49320;52.512;13.448;2023-03-23T08:46:51;15.60;75.10
63219;DHT22;49320;52.512;13.448;2023-03-23T08:49:22;15.60;75.00
63219;DHT22;49320;52.512;13.448;2023-03-23T08:51:49;15.70;75.00
63219;DHT22;49320;52.512;13.448;2023-03-23T08:54:14;15.70;74.80
63219;DHT22;49320;52.512;13.448;2023-03-23T08:56:42;15.70;74.80
63219;DHT22;49320;52.512;13.448;2023-03-23T08:59:08;15.80;74.80
63219;DHT22;49320;52.512;13.448;2023-03-23T09:04:01;15.90;74.70
63219;DHT22;49320;52.512;13.448;2023-03-23T09:06:27;15.90;74.00
63219;DHT22;49320;52.512;13.448;2023-03-23T09:08:53;16.00;74.70
63219;DHT22;49320;52.512;13.448;2023-03-23T09:11:21;16.00;74.80
63219;DHT22;49320;52.512;13.448;2023-03-23T09:13:47;16.10;74.70
63219;DHT22;49320;52.512;13.448;2023-03-23T09:16:13;16.20;74.60
63219;DHT22;49320;52.512;13.448;2023-03-23T09:18:39;16.30;74.20
63219;DHT22;49320;52.512;13.448;2023-03-23T09:21:05;16.40;74.30
63219;DHT22;49320;52.512;13.448;2023-03-23T09:23:32;16.40;73.90
63219;DHT22;49320;52.512;13.448;2023-03-23T09:26:00;16.50;73.70
63219;DHT22;49320;52.512;13.448;2023-03-23T09:28:27;16.50;73.40
63219;DHT22;49320;52.512;13.448;2023-03-23T09:30:55;16.60;72.80
63219;DHT22;49320;52.512;13.448;2023-03-23T09:33:24;16.60;73.20
63219;DHT22;49320;52.512;13.448;2023-03-23T09:35:50;16.60;73.00
63219;DHT22;49320;52.512;13.448;2023-03-23T09:38:16;16.70;72.30
63219;DHT22;49320;52.512;13.448;2023-03-23T09:47:08;16.90;72.00
63219;DHT22;49320;52.512;13.448;2023-03-23T09:49:54;16.90;71.60
63219;DHT22;49320;52.512;13.448;2023-03-23T09:52:46;17.00;72.40
63219;DHT22;49320;52.512;13.448;2023-03-23T09:55:17;17.00;71.40
63219;DHT22;49320;52.512;13.448;2023-03-23T09:58:09;17.00;71.90
63219;DHT22;49320;52.512;13.448;2023-03-23T10:00:55;17.10;71.80
63219;DHT22;49320;52.512;13.448;2023-03-23T10:03:33;17.20;71.60
63219;DHT22;49320;52.512;13.448;2023-03-23T10:06:04;17.20;71.40
63219;DHT22;49320;52.512;13.448;2023-03-23T10:08:43;17.30;71.40
63219;DHT22;49320;52.512;13.448;2023-03-23T10:11:29;17.30;71.30
63219;DHT22;49320;52.512;13.448;2023-03-23T10:17:13;17.60;70.20
63219;DHT22;49320;52.512;13.448;2023-03-23T10:19:46;17.60;70.60
63219;DHT22;49320;52.512;13.448;2023-03-23T10:22:29;17.70;70.60
63219;DHT22;49320;52.512;13.448;2023-03-23T10:31:01;17.90;69.00
63219;DHT22;49320;52.512;13.448;2023-03-23T10:33:37;18.00;69.20
63219;DHT22;49320;52.512;13.448;2023-03-23T10:36:22;18.10;68.10
63219;DHT22;49320;52.512;13.448;2023-03-23T10:39:11;18.10;68.30
63219;DHT22;49320;52.512;13.448;2023-03-23T10:41:40;18.20;68.10
63219;DHT22;49320;52.512;13.448;2023-03-23T10:44:24;18.20;68.10
63219;DHT22;49320;52.512;13.448;2023-03-23T10:47:04;18.30;67.70
63219;DHT22;49320;52.512;13.448;2023-03-23T10:49:39;18.30;67.70
63219;DHT22;49320;52.512;13.448;2023-03-23T10:55:17;18.40;67.50
63219;DHT22;49320;52.512;13.448;2023-03-23T10:58:09;18.50;67.30
63219;DHT22;49320;52.512;13.448;2023-03-23T11:00:46;18.60;66.90
63219;DHT22;49320;52.512;13.448;2023-03-23T11:08:28;18.70;65.90
63219;DHT22;49320;52.512;13.448;2023-03-23T11:11:18;18.60;64.60
63219;DHT22;49320;52.512;13.448;2023-03-23T11:13:48;20.00;66.20
63219;DHT22;49320;52.512;13.448;2023-03-23T11:16:29;18.70;64.60
63219;DHT22;49320;52.512;13.448;2023-03-23T11:19:11;18.70;65.20
63219;DHT22;49320;52.512;13.448;2023-03-23T11:21:40;18.70;65.60
63219;DHT22;49320;52.512;13.448;2023-03-23T11:24:11;18.80;65.50
63219;DHT22;49320;52.512;13.448;2023-03-23T11:26:37;18.80;65.10
63219;DHT22;49320;52.512;13.448;2023-03-23T11:29:14;18.80;65.00
63219;DHT22;49320;52.512;13.448;2023-03-23T11:34:26;18.80;64.40
63219;DHT22;49320;52.512;13.448;2023-03-23T11:37:09;18.90;64.80
63219;DHT22;49320;52.512;13.448;2023-03-23T11:39:55;19.00;63.90
63219;DHT22;49320;52.512;13.448;2023-03-23T11:42:36;19.00;64.30
63219;DHT22;49320;52.512;13.448;2023-03-23T11:51:11;19.20;63.40
63219;DHT22;49320;52.512;13.448;2023-03-23T11:54:07;19.20;63.20
63219;DHT22;49320;52.512;13.448;2023-03-23T11:56:45;19.30;62.80
63219;DHT22;49320;52.512;13.448;2023-03-23T11:59:29;19.30;63.40
63219;DHT22;49320;52.512;13.448;2023-03-23T12:02:13;19.30;62.40
63219;DHT22;49320;52.512;13.448;2023-03-23T12:05:18;19.30;62.50
63219;DHT22;49320;52.512;13.448;2023-03-23T12:10:58;19.40;62.10
63219;DHT22;49320;52.512;13.448;2023-03-23T12:16:56;19.60;61.20
63219;DHT22;49320;52.512;13.448;2023-03-23T12:31:39;19.70;61.10
63219;DHT22;49320;52.512;13.448;2023-03-23T12:40:37;19.70;59.80
63219;DHT22;49320;52.512;13.448;2023-03-23T12:43:28;19.70;59.80
63219;DHT22;49320;52.512;13.448;2023-03-23T12:46:10;19.70;60.40
63219;DHT22;49320;52.512;13.448;2023-03-23T12:49:12;19.80;60.70
63219;DHT22;49320;52.512;13.448;2023-03-23T13:03:46;19.80;59.50
63219;DHT22;49320;52.512;13.448;2023-03-23T13:06:23;19.90;59.50
63219;DHT22;49320;52.512;13.448;2023-03-23T13:09:10;19.90;59.70
63219;DHT22;49320;52.512;13.448;2023-03-23T13:11:43;19.90;59.50
63219;DHT22;49320;52.512;13.448;2023-03-23T13:23:36;20.10;58.80
63219;DHT22;49320;52.512;13.448;2023-03-23T13:26:16;20.10;59.00
63219;DHT22;49320;52.512;13.448;2023-03-23T13:31:47;20.10;59.00
63219;DHT22;49320;52.512;13.448;2023-03-23T13:34:26;20.10;59.10
63219;DHT22;49320;52.512;13.448;2023-03-23T13:40:24;20.10;58.20
63219;DHT22;49320;52.512;13.448;2023-03-23T13:42:56;20.10;58.10
63219;DHT22;49320;52.512;13.448;2023-03-23T13:48:19;20.20;57.80
63219;DHT22;49320;52.512;13.448;2023-03-23T13:50:52;20.20;58.00
63219;DHT22;49320;52.512;13.448;2023-03-23T13:53:31;20.10;57.50
63219;DHT22;49320;52.512;13.448;2023-03-23T13:56:21;20.10;57.50
63219;DHT22;49320;52.512;13.448;2023-03-23T13:59:16;20.00;57.50
63219;DHT22;49320;52.512;13.448;2023-03-23T14:01:55;20.00;57.40
63219;DHT22;49320;52.512;13.448;2023-03-23T14:04:30;20.00;57.40
63219;DHT22;49320;52.512;13.448;2023-03-23T14:07:10;20.00;57.40
63219;DHT22;49320;52.512;13.448;2023-03-23T14:09:42;19.90;56.80
63219;DHT22;49320;52.512;13.448;2023-03-23T14:12:27;19.90;57.20
63219;DHT22;49320;52.512;13.448;2023-03-23T14:15:01;20.00;56.70
63219;DHT22;49320;52.512;13.448;2023-03-23T14:17:33;19.90;56.80
63219;DHT22;49320;52.512;13.448;2023-03-23T14:20:05;20.00;56.80
63219;DHT22;49320;52.512;13.448;2023-03-23T14:22:35;20.00;56.70
63219;DHT22;49320;52.512;13.448;2023-03-23T14:25:12;20.10;56.50
63219;DHT22;49320;52.512;13.448;2023-03-23T14:27:40;20.10;56.60
63219;DHT22;49320;52.512;13.448;2023-03-23T14:30:12;20.10;56.90
63219;DHT22;49320;52.512;13.448;2023-03-23T14:32:41;20.10;56.20
63219;DHT22;49320;52.512;13.448;2023-03-23T14:35:13;20.10;56.00
63219;DHT22;49320;52.512;13.448;2023-03-23T14:37:45;20.10;55.80
63219;DHT22;49320;52.512;13.448;2023-03-23T14:40:14;20.20;56.10
63219;DHT22;49320;52.512;13.448;2023-03-23T14:42:42;20.10;56.00
63219;DHT22;49320;52.512;13.448;2023-03-23T14:45:13;20.10;56.20
63219;DHT22;49320;52.512;13.448;2023-03-23T14:47:46;20.10;56.00
63219;DHT22;49320;52.512;13.448;2023-03-23T14:50:28;20.00;56.00
63219;DHT22;49320;52.512;13.448;2023-03-23T14:53:25;20.10;55.80
63219;DHT22;49320;52.512;13.448;2023-03-23T14:55:55;20.00;55.70
63219;DHT22;49320;52.512;13.448;2023-03-23T14:58:23;20.00;56.20
63219;DHT22;49320;52.512;13.448;2023-03-23T15:00:58;20.00;56.10
63219;DHT22;49320;52.512;13.448;2023-03-23T15:03:30;19.90;56.00
63219;DHT22;49320;52.512;13.448;2023-03-23T15:06:01;19.90;56.30
63219;DHT22;49320;52.512;13.448;2023-03-23T15:08:33;19.80;56.50
63219;DHT22;49320;52.512;13.448;2023-03-23T15:13:46;19.80;56.60
63219;DHT22;49320;52.512;13.448;2023-03-23T15:16:21;19.80;56.00
63219;DHT22;49320;52.512;13.448;2023-03-23T15:19:04;19.90;56.80
63219;DHT22;49320;52.512;13.448;2023-03-23T15:21:33;19.90;56.50
63219;DHT22;49320;52.512;13.448;2023-03-23T15:24:02;20.00;56.80
63219;DHT22;49320;52.512;13.448;2023-03-23T15:26:51;20.00;56.80
63219;DHT22;49320;52.512;13.448;2023-03-23T15:29:21;19.90;56.80
63219;DHT22;49320;52.512;13.448;2023-03-23T15:31:54;19.90;56.60
63219;DHT22;49320;52.512;13.448;2023-03-23T15:34:24;20.00;56.60
63219;DHT22;49320;52.512;13.448;2023-03-23T15:36:55;20.00;56.70
63219;DHT22;49320;52.512;13.448;2023-03-23T15:39:24;19.90;56.40
63219;DHT22;49320;52.512;13.448;2023-03-23T15:41:51;19.90;56.70
63219;DHT22;49320;52.512;13.448;2023-03-23T15:44:30;19.90;56.60
63219;DHT22;49320;52.512;13.448;2023-03-23T15:47:16;19.90;56.30
63219;DHT22;49320;52.512;13.448;2023-03-23T15:49:44;19.90;56.00
63219;DHT22;49320;52.512;13.448;2023-03-23T15:52:13;19.80;56.30
63219;DHT22;49320;52.512;13.448;2023-03-23T15:54:46;19.80;56.20
63219;DHT22;49320;52.512;13.448;2023-03-23T15:57:13;19.80;55.70
63219;DHT22;49320;52.512;13.448;2023-03-23T15:59:38;19.80;55.80
63219;DHT22;49320;52.512;13.448;2023-03-23T16:02:05;19.70;55.80
63219;DHT22;49320;52.512;13.448;2023-03-23T16:04:32;19.70;55.80
63219;DHT22;49320;52.512;13.448;2023-03-23T16:06:59;19.70;55.70
63219;DHT22;49320;52.512;13.448;2023-03-23T16:09:26;19.70;55.80
63219;DHT22;49320;52.512;13.448;2023-03-23T16:11:53;19.70;55.70
63219;DHT22;49320;52.512;13.448;2023-03-23T16:14:20;19.70;55.80
63219;DHT22;49320;52.512;13.448;2023-03-23T16:16:48;19.60;55.70
63219;DHT22;49320;52.512;13.448;2023-03-23T16:19:17;19.60;55.80
63219;DHT22;49320;52.512;13.448;2023-03-23T16:21:45;19.60;55.60
63219;DHT22;49320;52.512;13.448;2023-03-23T16:24:12;19.60;55.50
63219;DHT22;49320;52.512;13.448;2023-03-23T16:26:39;19.60;55.30
63219;DHT22;49320;52.512;13.448;2023-03-23T16:29:12;19.60;55.20
63219;DHT22;49320;52.512;13.448;2023-03-23T16:31:59;19.60;55.00
63219;DHT22;49320;52.512;13.448;2023-03-23T16:34:26;19.60;55.30
63219;DHT22;49320;52.512;13.448;2023-03-23T16:36:55;19.60;55.20
63219;DHT22;49320;52.512;13.448;2023-03-23T16:39:22;19.50;55.10
63219;DHT22;49320;52.512;13.448;2023-03-23T16:41:49;19.50;55.00
63219;DHT22;49320;52.512;13.448;2023-03-23T16:44:15;19.50;55.10
63219;DHT22;49320;52.512;13.448;2023-03-23T16:46:42;19.50;55.10
63219;DHT22;49320;52.512;13.448;2023-03-23T16:49:09;19.40;55.10
63219;DHT22;49320;52.512;13.448;2023-03-23T16:51:36;19.50;55.10
63219;DHT22;49320;52.512;13.448;2023-03-23T16:54:03;19.50;55.10
63219;DHT22;49320;52.512;13.448;2023-03-23T16:56:30;19.40;54.90
63219;DHT22;49320;52.512;13.448;2023-03-23T17:01:25;19.40;54.50
63219;DHT22;49320;52.512;13.448;2023-03-23T17:03:52;19.30;55.10
63219;DHT22;49320;52.512;13.448;2023-03-23T17:06:19;19.10;54.80
63219;DHT22;49320;52.512;13.448;2023-03-23T17:08:46;19.10;55.40
63219;DHT22;49320;52.512;13.448;2023-03-23T17:11:13;19.00;55.50
63219;DHT22;49320;52.512;13.448;2023-03-23T17:13:40;18.80;55.70
63219;DHT22;49320;52.512;13.448;2023-03-23T17:16:07;18.70;55.60
63219;DHT22;49320;52.512;13.448;2023-03-23T17:18:35;16.50;55.10
63219;DHT22;49320;52.512;13.448;2023-03-23T17:21:02;18.50;56.40
63219;DHT22;49320;52.512;13.448;2023-03-23T17:23:29;18.40;56.60
63219;DHT22;49320;52.512;13.448;2023-03-23T17:25:55;18.20;56.80
63219;DHT22;49320;52.512;13.448;2023-03-23T17:28:22;18.10;57.10